createdAt,value
2023-03-06T00:01:07.006Z,7.60
2023-03-06T00:03:34.714Z,7.60
2023-03-06T00:06:02.220Z,7.60
2023-03-06T00:08:29.690Z,7.60
2023-03-06T00:10:57.182Z,7.60
2023-03-06T00:13:26.925Z,7.60
2023-03-06T00:16:03.517Z,7.60
2023-03-06T00:18:35.103Z,7.60
2023-03-06T00:21:02.010Z,7.60
2023-03-06T00:23:31.055Z,7.50
2023-03-06T00:26:02.769Z,7.50
2023-03-06T00:28:31.419Z,7.50
2023-03-06T00:30:58.425Z,7.50
2023-03-06T00:33:27.815Z,7.50
2023-03-06T00:35:58.881Z,7.50
2023-03-06T00:38:28.537Z,7.40
2023-03-06T00:40:58.991Z,7.50
2023-03-06T00:43:28.171Z,7.40
2023-03-06T00:45:57.682Z,7.40
2023-03-06T00:48:29.367Z,7.40
2023-03-06T00:50:58.816Z,7.40
2023-03-06T00:53:30.723Z,7.40
2023-03-06T00:56:00.050Z,7.40
2023-03-06T00:58:29.146Z,7.30
2023-03-06T01:00:56.775Z,7.40
2023-03-06T01:03:25.776Z,7.40
2023-03-06T01:05:52.719Z,7.30
2023-03-06T01:08:26.456Z,7.40
2023-03-06T01:10:56.489Z,7.40
2023-03-06T01:13:23.373Z,7.30
2023-03-06T01:15:51.875Z,7.40
2023-03-06T01:18:23.842Z,7.30
2023-03-06T01:20:52.812Z,7.40
2023-03-06T01:23:25.335Z,7.30
2023-03-06T01:25:54.352Z,7.40
2023-03-06T01:28:26.579Z,7.30
2023-03-06T01:30:53.908Z,7.30
2023-03-06T01:33:20.968Z,7.30
2023-03-06T01:35:52.177Z,7.30
2023-03-06T01:38:19.543Z,7.30
2023-03-06T01:40:46.706Z,7.40
2023-03-06T01:43:28.629Z,7.30
2023-03-06T01:46:24.980Z,7.30
2023-03-06T01:49:23.090Z,7.30
2023-03-06T01:52:01.840Z,7.30
2023-03-06T01:54:35.293Z,7.30
2023-03-06T01:57:13.689Z,7.30
2023-03-06T01:59:46.899Z,7.30
2023-03-06T02:02:16.905Z,7.30
2023-03-06T02:04:46.990Z,7.30
2023-03-06T02:07:20.138Z,7.30
2023-03-06T02:09:51.649Z,7.30
2023-03-06T02:12:20.659Z,7.30
2023-03-06T02:14:48.623Z,7.30
2023-03-06T02:17:21.625Z,7.30
2023-03-06T02:20:13.176Z,7.30
2023-03-06T02:23:06.655Z,7.30
2023-03-06T02:25:38.628Z,7.30
2023-03-06T02:28:14.153Z,7.30
2023-03-06T02:30:49.410Z,7.20
2023-03-06T02:33:23.337Z,7.20
2023-03-06T02:36:00.635Z,7.30
2023-03-06T02:38:44.269Z,7.30
2023-03-06T02:41:11.929Z,7.30
2023-03-06T02:43:43.998Z,7.20
2023-03-06T02:46:11.265Z,7.20
2023-03-06T02:48:38.182Z,7.20
2023-03-06T02:51:09.390Z,7.10
2023-03-06T02:53:36.344Z,7.20
2023-03-06T02:56:06.159Z,7.10
2023-03-06T02:58:36.222Z,7.10
2023-03-06T03:01:15.375Z,7.10
2023-03-06T03:03:47.067Z,7.10
2023-03-06T03:06:17.197Z,7.10
2023-03-06T03:08:44.961Z,7.00
2023-03-06T03:11:15.172Z,7.00
2023-03-06T03:13:44.179Z,6.90
2023-03-06T03:16:19.256Z,6.90
2023-03-06T03:18:48.247Z,6.90
2023-03-06T03:21:21.537Z,6.90
2023-03-06T03:23:49.225Z,6.90
2023-03-06T03:26:20.327Z,6.90
2023-03-06T03:29:10.903Z,6.80
2023-03-06T03:31:37.834Z,6.90
2023-03-06T03:34:08.236Z,6.80
2023-03-06T03:36:43.421Z,6.90
2023-03-06T03:39:12.422Z,6.90
2023-03-06T03:41:43.453Z,6.80
2023-03-06T03:44:11.281Z,6.90
2023-03-06T03:46:38.658Z,6.90
2023-03-06T03:49:10.330Z,6.90
2023-03-06T03:51:38.107Z,6.90
2023-03-06T03:54:08.424Z,6.70
2023-03-06T03:56:45.685Z,6.80
2023-03-06T03:59:18.614Z,6.80
2023-03-06T04:01:56.529Z,6.80
2023-03-06T04:04:24.626Z,6.70
2023-03-06T04:06:51.610Z,6.70
2023-03-06T04:09:20.061Z,6.70
2023-03-06T04:11:49.272Z,6.80
2023-03-06T04:14:16.272Z,6.80
2023-03-06T04:16:45.389Z,6.80
2023-03-06T04:19:14.946Z,6.80
2023-03-06T04:21:44.631Z,6.80
2023-03-06T04:24:13.978Z,6.80
2023-03-06T04:26:41.196Z,6.80
2023-03-06T04:29:10.283Z,6.80
2023-03-06T04:31:39.883Z,6.80
2023-03-06T04:34:07.448Z,6.90
2023-03-06T04:36:44.941Z,6.90
2023-03-06T04:39:14.297Z,6.90
2023-03-06T04:41:46.077Z,6.80
2023-03-06T04:44:15.688Z,6.90
2023-03-06T04:46:49.668Z,6.80
2023-03-06T04:49:18.831Z,6.90
2023-03-06T04:51:45.625Z,6.90
2023-03-06T04:54:14.738Z,6.90
2023-03-06T04:56:43.858Z,6.90
2023-03-06T04:59:10.742Z,6.90
2023-03-06T05:01:43.151Z,6.90
2023-03-06T05:04:10.056Z,6.90
2023-03-06T05:06:39.530Z,6.90
2023-03-06T05:09:11.185Z,6.90
2023-03-06T05:11:38.017Z,7.00
2023-03-06T05:14:07.079Z,7.00
2023-03-06T05:16:36.191Z,6.90
2023-03-06T05:19:10.130Z,7.00
2023-03-06T05:21:37.048Z,7.00
2023-03-06T05:24:04.026Z,7.00
2023-03-06T05:26:34.379Z,7.00
2023-03-06T05:29:03.784Z,6.90
2023-03-06T05:31:37.092Z,7.00
2023-03-06T05:34:06.486Z,7.00
2023-03-06T05:36:33.329Z,7.10
2023-03-06T05:39:04.660Z,7.10
2023-03-06T05:41:36.654Z,7.10
2023-03-06T05:44:06.045Z,7.10
2023-03-06T05:46:35.055Z,7.00
2023-03-06T05:49:01.961Z,7.00
2023-03-06T05:51:33.477Z,7.00
2023-03-06T05:54:02.788Z,7.00
2023-03-06T05:56:36.608Z,7.00
2023-03-06T05:59:05.938Z,7.00
2023-03-06T06:01:37.229Z,6.90
2023-03-06T06:04:09.057Z,7.00
2023-03-06T06:06:42.677Z,7.00
2023-03-06T06:09:14.389Z,7.00
2023-03-06T06:11:43.524Z,7.00
2023-03-06T06:14:12.579Z,7.00
2023-03-06T06:16:40.470Z,7.00
2023-03-06T06:19:07.408Z,7.00
2023-03-06T06:21:34.242Z,6.90
2023-03-06T06:24:05.694Z,7.00
2023-03-06T06:26:32.554Z,7.00
2023-03-06T06:29:04.458Z,6.90
2023-03-06T06:31:36.693Z,6.90
2023-03-06T06:34:07.512Z,6.90
2023-03-06T06:36:41.294Z,6.90
2023-03-06T06:39:09.338Z,6.90
2023-03-06T06:41:56.844Z,6.90
2023-03-06T06:44:29.915Z,6.90
2023-03-06T06:49:53.949Z,6.90
2023-03-06T06:52:26.830Z,7.00
2023-03-06T06:54:56.322Z,6.90
2023-03-06T06:57:25.769Z,6.90
2023-03-06T06:59:54.155Z,6.90
2023-03-06T07:02:23.486Z,6.90
2023-03-06T07:05:02.986Z,7.00
2023-03-06T07:07:39.853Z,7.00
2023-03-06T07:10:15.697Z,7.00
2023-03-06T07:12:45.142Z,7.00
2023-03-06T07:15:18.629Z,7.00
2023-03-06T07:17:49.919Z,7.10
2023-03-06T07:20:22.367Z,7.10
2023-03-06T07:22:53.870Z,7.10
2023-03-06T07:25:21.363Z,7.20
2023-03-06T07:27:54.046Z,7.20
2023-03-06T07:30:23.192Z,7.20
2023-03-06T07:32:57.234Z,7.30
2023-03-06T07:35:25.368Z,7.30
2023-03-06T07:37:54.466Z,7.30
2023-03-06T07:40:27.002Z,7.40
2023-03-06T07:43:09.137Z,7.40
2023-03-06T07:45:41.588Z,7.40
2023-03-06T07:48:10.839Z,7.40
2023-03-06T07:50:39.898Z,7.40
2023-03-06T07:53:06.794Z,7.50
2023-03-06T07:55:33.670Z,7.40
2023-03-06T07:58:00.560Z,7.50
2023-03-06T08:00:29.964Z,7.40
2023-03-06T08:02:57.001Z,7.50
2023-03-06T08:05:26.071Z,7.50
2023-03-06T08:07:53.015Z,7.50
2023-03-06T08:10:24.807Z,7.40
2023-03-06T08:12:56.242Z,7.50
2023-03-06T08:15:25.825Z,7.50
2023-03-06T08:17:57.848Z,7.50
2023-03-06T08:20:26.832Z,7.60
2023-03-06T08:22:53.660Z,7.60
2023-03-06T08:25:20.597Z,7.70
2023-03-06T08:27:54.610Z,7.70
2023-03-06T08:30:21.686Z,7.70
2023-03-06T08:32:50.810Z,7.60
2023-03-06T08:35:19.813Z,7.70
2023-03-06T08:37:46.804Z,7.70
2023-03-06T08:40:16.220Z,7.70
2023-03-06T08:42:47.603Z,7.80
2023-03-06T08:45:18.777Z,7.80
2023-03-06T08:47:47.865Z,7.90
2023-03-06T08:50:17.306Z,7.90
2023-03-06T08:52:48.806Z,7.90
2023-03-06T08:55:17.964Z,7.90
2023-03-06T08:57:45.759Z,7.90
2023-03-06T09:00:15.984Z,7.90
2023-03-06T09:02:45.239Z,8.00
2023-03-06T09:05:12.104Z,8.00
2023-03-06T09:07:39.025Z,8.00
2023-03-06T09:10:14.446Z,8.00
2023-03-06T09:12:50.530Z,8.00
2023-03-06T09:15:21.023Z,7.90
2023-03-06T09:17:54.184Z,7.90
2023-03-06T09:20:21.903Z,7.90
2023-03-06T09:22:53.569Z,8.00
2023-03-06T09:25:23.159Z,7.90
2023-03-06T09:28:08.706Z,7.90
2023-03-06T09:30:47.814Z,7.80
2023-03-06T09:33:14.818Z,7.90
2023-03-06T09:35:54.210Z,7.90
2023-03-06T09:38:28.604Z,7.90
2023-03-06T09:41:00.821Z,7.80
2023-03-06T09:43:54.025Z,7.90
2023-03-06T09:46:40.700Z,7.90
2023-03-06T09:49:48.122Z,7.90
2023-03-06T09:52:30.140Z,8.00
2023-03-06T09:55:40.068Z,7.90
2023-03-06T09:58:39.884Z,8.00
2023-03-06T10:01:24.601Z,7.90
2023-03-06T10:04:14.265Z,8.00
2023-03-06T10:06:58.573Z,8.00
2023-03-06T10:09:40.198Z,8.00
2023-03-06T10:13:02.181Z,8.00
2023-03-06T10:15:39.313Z,8.10
2023-03-06T10:18:12.989Z,8.10
2023-03-06T10:20:59.470Z,8.00
2023-03-06T10:23:52.274Z,8.10
2023-03-06T10:26:29.763Z,8.10
2023-03-06T10:29:12.530Z,8.10
2023-03-06T10:31:49.647Z,8.10
2023-03-06T10:34:33.284Z,8.10
2023-03-06T10:37:23.644Z,8.20
2023-03-06T10:40:03.729Z,8.40
2023-03-06T10:42:33.280Z,8.40
2023-03-06T10:45:14.734Z,8.50
2023-03-06T10:47:46.900Z,8.60
2023-03-06T10:50:30.578Z,8.60
2023-03-06T10:53:20.506Z,8.60
2023-03-06T10:55:58.278Z,8.90
2023-03-06T10:58:30.143Z,8.70
2023-03-06T11:01:06.815Z,8.80
2023-03-06T11:03:39.643Z,8.70
2023-03-06T11:06:15.525Z,8.90
2023-03-06T11:08:46.500Z,8.90
2023-03-06T11:11:36.871Z,9.00
2023-03-06T11:14:27.151Z,9.10
2023-03-06T11:16:56.815Z,9.40
2023-03-06T11:19:29.521Z,9.60
2023-03-06T11:22:04.788Z,9.80
2023-03-06T11:24:47.593Z,9.90
2023-03-06T11:27:35.630Z,10.00
2023-03-06T11:30:07.852Z,10.10
2023-03-06T11:32:53.929Z,10.20
2023-03-06T11:35:43.414Z,10.30
2023-03-06T11:38:24.647Z,10.30
2023-03-06T11:41:04.574Z,10.30
2023-03-06T11:44:04.057Z,10.40
2023-03-06T11:46:52.550Z,10.40
2023-03-06T11:49:46.589Z,10.40
2023-03-06T11:52:29.202Z,10.60
2023-03-06T11:54:57.827Z,10.70
2023-03-06T11:57:48.167Z,10.80
2023-03-06T12:00:50.831Z,10.90
2023-03-06T12:03:42.714Z,11.00
2023-03-06T12:06:54.330Z,11.00
2023-03-06T12:10:08.300Z,11.10
2023-03-06T12:13:05.410Z,11.20
2023-03-06T12:16:24.529Z,11.50
2023-03-06T12:19:14.639Z,11.70
2023-03-06T12:21:54.939Z,12.10
2023-03-06T12:25:19.851Z,12.50
2023-03-06T12:28:09.186Z,12.60
2023-03-06T12:31:13.803Z,12.90
2023-03-06T12:33:55.693Z,13.00
2023-03-06T12:37:00.615Z,13.20
2023-03-06T12:39:48.492Z,13.30
2023-03-06T12:42:50.644Z,13.60
2023-03-06T12:45:33.079Z,13.70
2023-03-06T12:48:01.990Z,13.90
2023-03-06T12:50:37.357Z,14.10
2023-03-06T12:53:19.017Z,14.20
2023-03-06T12:55:49.227Z,14.30
2023-03-06T12:58:31.304Z,14.30
2023-03-06T13:01:51.950Z,14.30
2023-03-06T13:04:36.702Z,14.30
2023-03-06T13:07:27.823Z,14.40
2023-03-06T13:10:13.706Z,14.20
2023-03-06T13:12:50.740Z,14.10
2023-03-06T13:16:04.757Z,13.90
2023-03-06T13:18:36.726Z,13.60
2023-03-06T13:21:04.475Z,13.20
2023-03-06T13:23:33.416Z,13.00
2023-03-06T13:26:26.539Z,12.70
2023-03-06T13:29:01.026Z,12.50
2023-03-06T13:31:36.350Z,12.30
2023-03-06T13:34:26.241Z,12.10
2023-03-06T13:36:53.248Z,11.90
2023-03-06T13:39:20.033Z,11.90
2023-03-06T13:41:58.564Z,11.80
2023-03-06T13:44:28.099Z,11.70
2023-03-06T13:47:00.951Z,11.60
2023-03-06T13:49:29.652Z,11.40
2023-03-06T13:52:41.834Z,11.40
2023-03-06T13:55:43.503Z,11.20
2023-03-06T13:58:47.148Z,11.20
2023-03-06T14:01:57.209Z,11.00
2023-03-06T14:04:45.683Z,10.80
2023-03-06T14:07:41.446Z,10.70
2023-03-06T14:10:16.300Z,10.50
2023-03-06T14:12:51.328Z,10.40
2023-03-06T14:15:28.799Z,10.30
2023-03-06T14:18:05.990Z,10.50
2023-03-06T14:20:38.850Z,10.10
2023-03-06T14:23:32.025Z,10.10
2023-03-06T14:26:31.651Z,10.00
2023-03-06T14:29:02.155Z,10.00
2023-03-06T14:31:39.247Z,9.90
2023-03-06T14:34:27.220Z,10.60
2023-03-06T14:37:02.393Z,9.90
2023-03-06T14:39:44.042Z,9.90
2023-03-06T14:42:34.829Z,10.00
2023-03-06T14:45:02.934Z,10.00
2023-03-06T14:47:36.117Z,10.00
2023-03-06T14:50:29.722Z,10.10
2023-03-06T14:53:15.552Z,10.10
2023-03-06T14:55:58.799Z,10.10
2023-03-06T14:58:52.485Z,10.20
2023-03-06T15:01:48.711Z,10.20
2023-03-06T15:04:43.507Z,10.20
2023-03-06T15:07:17.341Z,10.20
2023-03-06T15:09:51.595Z,10.20
2023-03-06T15:12:22.561Z,10.10
2023-03-06T15:15:29.786Z,10.20
2023-03-06T15:18:03.947Z,10.10
2023-03-06T15:20:51.774Z,10.10
2023-03-06T15:23:43.132Z,10.00
2023-03-06T15:26:37.766Z,10.00
2023-03-06T15:29:10.813Z,10.00
2023-03-06T15:31:42.779Z,10.00
2023-03-06T15:34:11.972Z,9.90
2023-03-06T15:36:49.151Z,9.90
2023-03-06T15:39:40.102Z,9.80
2023-03-06T15:42:16.755Z,9.80
2023-03-06T15:44:47.889Z,9.80
2023-03-06T15:47:20.496Z,9.80
2023-03-06T15:49:51.908Z,9.80
2023-03-06T15:52:22.633Z,9.80
2023-03-06T15:54:54.516Z,9.80
2023-03-06T15:57:29.172Z,9.70
2023-03-06T16:00:00.027Z,9.70
2023-03-06T16:02:27.373Z,9.70
2023-03-06T16:04:54.447Z,9.70
2023-03-06T16:07:23.570Z,9.70
2023-03-06T16:09:50.488Z,9.70
2023-03-06T16:12:22.767Z,9.70
2023-03-06T16:14:49.802Z,9.70
2023-03-06T16:17:19.343Z,9.70
2023-03-06T16:19:46.256Z,9.60
2023-03-06T16:22:15.706Z,9.70
2023-03-06T16:24:47.187Z,9.70
2023-03-06T16:27:23.353Z,9.70
2023-03-06T16:29:55.135Z,9.70
2023-03-06T16:32:22.082Z,9.60
2023-03-06T16:34:51.206Z,9.70
2023-03-06T16:37:24.122Z,9.60
2023-03-06T16:39:51.091Z,9.70
2023-03-06T16:42:17.954Z,9.60
2023-03-06T16:44:46.925Z,9.60
2023-03-06T16:47:16.809Z,9.60
2023-03-06T16:49:43.665Z,9.50
2023-03-06T16:52:12.839Z,9.50
2023-03-06T16:54:44.884Z,9.50
2023-03-06T16:57:15.313Z,9.40
2023-03-06T16:59:44.687Z,9.50
2023-03-06T17:02:14.602Z,9.50
2023-03-06T17:04:48.766Z,9.40
2023-03-06T17:07:18.033Z,9.40
2023-03-06T17:09:46.867Z,9.30
2023-03-06T17:12:16.056Z,9.40
2023-03-06T17:14:45.389Z,9.30
2023-03-06T17:17:12.209Z,9.30
2023-03-06T17:19:41.597Z,9.30
2023-03-06T17:22:10.630Z,9.20
2023-03-06T17:24:37.644Z,9.10
2023-03-06T17:27:04.642Z,9.20
2023-03-06T17:29:33.766Z,9.20
2023-03-06T17:32:03.927Z,9.00
2023-03-06T17:34:33.700Z,9.00
2023-03-06T17:37:01.379Z,9.00
2023-03-06T17:39:40.690Z,8.80
2023-03-06T17:42:10.394Z,8.90
2023-03-06T17:44:41.259Z,8.80
2023-03-06T17:47:12.841Z,8.70
2023-03-06T17:49:39.662Z,8.70
2023-03-06T17:52:11.293Z,8.70
2023-03-06T17:54:38.297Z,8.60
2023-03-06T17:57:07.752Z,8.60
2023-03-06T17:59:34.643Z,8.60
2023-03-06T18:02:06.658Z,8.60
2023-03-06T18:04:36.362Z,8.60
2023-03-06T18:07:08.382Z,8.50
2023-03-06T18:09:40.046Z,8.50
2023-03-06T18:12:12.054Z,8.50
2023-03-06T18:14:41.055Z,8.50
2023-03-06T18:17:08.895Z,8.40
2023-03-06T18:19:38.151Z,8.40
2023-03-06T18:22:05.018Z,8.40
2023-03-06T18:24:31.775Z,8.30
2023-03-06T18:26:58.540Z,8.30
2023-03-06T18:29:27.893Z,8.20
2023-03-06T18:31:59.235Z,8.20
2023-03-06T18:34:31.748Z,8.10
2023-03-06T18:37:02.767Z,8.10
2023-03-06T18:39:31.942Z,8.10
2023-03-06T18:41:58.704Z,8.10
2023-03-06T18:44:25.757Z,8.10
2023-03-06T18:46:55.003Z,8.10
2023-03-06T18:49:24.386Z,8.00
2023-03-06T18:51:53.675Z,8.00
2023-03-06T18:54:29.568Z,8.00
2023-03-06T18:56:56.616Z,7.90
2023-03-06T18:59:26.160Z,7.90
2023-03-06T19:01:58.519Z,7.90
2023-03-06T19:04:29.255Z,7.80
2023-03-06T19:07:04.046Z,7.90
2023-03-06T19:09:31.137Z,7.70
2023-03-06T19:12:03.504Z,7.80
2023-03-06T19:14:30.652Z,7.70
2023-03-06T19:16:57.834Z,7.60
2023-03-06T19:19:29.135Z,7.50
2023-03-06T19:21:58.387Z,7.60
2023-03-06T19:24:30.154Z,7.60
2023-03-06T19:26:56.962Z,7.50
2023-03-06T19:29:23.772Z,7.50
2023-03-06T19:31:52.090Z,7.50
2023-03-06T19:34:19.044Z,7.50
2023-03-06T19:36:50.550Z,7.40
2023-03-06T19:39:17.398Z,7.30
2023-03-06T19:41:47.483Z,7.30
2023-03-06T19:44:16.648Z,7.20
2023-03-06T19:46:45.861Z,7.20
2023-03-06T19:49:17.833Z,7.20
2023-03-06T19:51:44.840Z,7.10
2023-03-06T19:54:12.948Z,7.10
2023-03-06T19:56:40.419Z,7.10
2023-03-06T19:59:09.520Z,7.10
2023-03-06T20:01:36.597Z,7.00
2023-03-06T20:04:06.264Z,6.90
2023-03-06T20:06:37.608Z,7.00
2023-03-06T20:09:09.146Z,6.90
2023-03-06T20:11:38.585Z,6.90
2023-03-06T20:14:09.781Z,6.90
2023-03-06T20:16:39.488Z,6.80
2023-03-06T20:19:06.812Z,6.90
2023-03-06T20:21:38.044Z,6.80
2023-03-06T20:24:06.882Z,6.80
2023-03-06T20:26:40.508Z,6.70
2023-03-06T20:29:10.614Z,6.80
2023-03-06T20:31:40.741Z,6.70
2023-03-06T20:34:07.933Z,6.70
2023-03-06T20:36:41.069Z,6.70
2023-03-06T20:39:14.647Z,6.70
2023-03-06T20:41:46.705Z,6.60
2023-03-06T20:44:20.786Z,6.60
2023-03-06T20:46:52.477Z,6.60
2023-03-06T20:49:22.544Z,6.50
2023-03-06T20:51:54.150Z,6.60
2023-03-06T20:54:23.465Z,6.50
2023-03-06T20:56:50.491Z,6.50
2023-03-06T20:59:19.615Z,6.50
2023-03-06T21:01:47.808Z,6.40
2023-03-06T21:04:17.232Z,6.40
2023-03-06T21:06:46.771Z,6.40
2023-03-06T21:09:17.520Z,6.30
2023-03-06T21:11:49.664Z,6.30
2023-03-06T21:14:23.265Z,6.30
2023-03-06T21:16:50.198Z,6.30
2023-03-06T21:19:19.308Z,6.30
2023-03-06T21:21:48.398Z,6.30
2023-03-06T21:24:15.221Z,6.20
2023-03-06T21:26:44.476Z,6.20
2023-03-06T21:29:13.293Z,6.20
2023-03-06T21:31:45.049Z,6.10
2023-03-06T21:34:12.005Z,6.20
2023-03-06T21:36:43.455Z,6.10
2023-03-06T21:39:10.563Z,6.10
2023-03-06T21:41:40.418Z,6.10
2023-03-06T21:44:13.177Z,6.10
2023-03-06T21:46:46.960Z,6.10
2023-03-06T21:49:18.519Z,6.00
2023-03-06T21:51:45.990Z,6.10
2023-03-06T21:54:16.052Z,6.00
2023-03-06T21:56:47.402Z,6.00
2023-03-06T21:59:16.588Z,6.00
2023-03-06T22:01:43.751Z,6.00
2023-03-06T22:04:15.631Z,6.00
2023-03-06T22:06:44.647Z,6.10
2023-03-06T22:09:19.833Z,6.10
2023-03-06T22:11:50.858Z,6.00
2023-03-06T22:14:22.453Z,6.00
2023-03-06T22:16:53.427Z,6.10
2023-03-06T22:19:26.075Z,6.10
2023-03-06T22:21:55.607Z,6.00
2023-03-06T22:24:24.971Z,6.10
2023-03-06T22:26:51.816Z,6.00
2023-03-06T22:29:27.862Z,6.00
2023-03-06T22:31:54.741Z,6.10
2023-03-06T22:34:28.649Z,6.10
2023-03-06T22:36:55.598Z,6.00
2023-03-06T22:39:24.611Z,6.00
2023-03-06T22:41:51.452Z,6.00
2023-03-06T22:44:19.458Z,6.00
2023-03-06T22:46:54.134Z,6.00
2023-03-06T22:49:20.966Z,6.00
2023-03-06T22:51:49.890Z,6.00
2023-03-06T22:54:16.732Z,6.10
2023-03-06T22:56:48.505Z,6.10
2023-03-06T22:59:15.278Z,6.10
2023-03-06T23:01:43.112Z,6.10
2023-03-06T23:04:16.797Z,6.10
2023-03-06T23:06:48.566Z,6.10
2023-03-06T23:09:21.284Z,6.10
2023-03-06T23:12:08.895Z,6.10
2023-03-06T23:14:59.291Z,6.10
2023-03-06T23:17:51.279Z,6.10
2023-03-06T23:20:45.525Z,6.10
2023-03-06T23:23:33.356Z,6.20
2023-03-06T23:26:04.806Z,6.20
2023-03-06T23:28:37.281Z,6.10
2023-03-06T23:31:19.931Z,6.10
2023-03-06T23:33:49.418Z,6.10
2023-03-06T23:36:19.929Z,6.10
2023-03-06T23:38:46.905Z,6.10
2023-03-06T23:41:17.971Z,6.10
2023-03-06T23:43:48.548Z,6.10
2023-03-06T23:46:15.862Z,6.10
2023-03-06T23:48:48.522Z,6.10
2023-03-06T23:51:19.925Z,6.10
2023-03-06T23:53:56.586Z,6.10
2023-03-06T23:56:25.783Z,6.10
2023-03-06T23:58:53.366Z,6.10
